< Typhoon 195108 1951 Season Typhoon 195110 >
Typhoon 195109 (LOUISE)
General InformationTrack Information on Google Maps || Disaster Info.ResourceGoogle EarthGE AnimationAtom FeedGeoJSON
Detalied Best Track (Time Zone = UTC)
Year Month Day Hour Lat. Long. Pressure (hPa) Wind (kt) Class Image Chart
1951 7 26 06 10.5 140.4 963 0 9 -- Chart
1951 7 26 12 10.7 139.1 960 0 9 -- Chart
1951 7 26 18 11.4 137.7 956 0 9 -- Chart
1951 7 27 00 12.1 136.6 951 0 9 -- Chart
1951 7 27 06 12.8 135.4 947 0 9 -- Chart
1951 7 27 12 13.6 134.1 943 0 9 -- Chart
1951 7 27 18 13.7 132.7 940 0 9 -- Chart
1951 7 28 00 13.9 131.2 937 0 9 -- Chart
1951 7 28 06 14.2 130.2 935 0 9 -- Chart
1951 7 28 12 14.8 129.2 931 0 9 -- Chart
1951 7 28 18 15.3 128.2 929 0 9 -- Chart
1951 7 29 00 15.8 127.1 924 0 9 -- Chart
1951 7 29 06 15.8 125.3 911 0 9 -- Chart
1951 7 29 12 16.2 124.0 904 0 9 -- Chart
1951 7 29 18 16.6 123.1 904 0 9 -- Chart
1951 7 30 00 17.3 122.4 916 0 9 -- Chart
1951 7 30 06 17.9 121.7 935 0 9 -- Chart
1951 7 30 12 18.4 121.0 956 0 9 -- Chart
1951 7 30 18 19.0 120.2 971 0 9 -- Chart
1951 7 31 00 19.3 119.3 979 0 9 -- Chart
1951 7 31 06 19.0 118.5 980 0 9 -- Chart
1951 7 31 12 19.5 117.5 982 0 9 -- Chart
1951 7 31 18 20.2 116.8 983 0 9 -- Chart
1951 8 1 00 20.8 115.7 984 0 9 -- Chart
1951 8 1 06 20.7 114.2 984 0 9 -- Chart
1951 8 1 12 21.3 112.9 985 0 9 -- Chart
1951 8 1 18 21.6 112.2 985 0 9 -- Chart
1951 8 2 00 21.7 111.6 990 0 9 -- Chart
1951 8 2 06 22.0 110.7 990 0 9 -- Chart
1951 8 2 12 22.2 109.8 995 0 2 -- Chart
1951 8 2 18 22.4 109.0 995 0 2 -- Chart
1951 8 3 00 22.6 107.6 995 0 2 -- Chart
1951 8 3 06 23.2 106.2 995 0 2 -- Chart
1951 8 3 12 23.5 105.0 995 0 2 -- Chart
1951 8 3 18 24.0 103.8 995 0 2 -- Chart
1951 8 4 00 24.6 102.8 995 0 2 -- Chart
1951 8 4 06 25.0 102.0 995 0 2 -- Chart
1951 8 4 12 25.7 103.0 996 0 2 -- Chart
1951 8 4 18 26.1 104.3 997 0 2 -- Chart
1951 8 5 00 26.5 105.5 998 0 2 -- Chart
Japan Meteorological Agency Best Track Data | Correction Date : 1989-06-01
< Typhoon 195108 1951 Season Typhoon 195110 >

Help